createdAt,value
2022-09-12T00:02:24.289Z,97.00
2022-09-12T00:04:54.641Z,97.19
2022-09-12T00:07:24.725Z,97.06
2022-09-12T00:09:54.838Z,97.25
2022-09-12T00:12:27.562Z,97.87
2022-09-12T00:14:57.689Z,98.33
2022-09-12T00:17:27.878Z,99.04
2022-09-12T00:19:58.492Z,99.10
2022-09-12T00:22:28.749Z,98.96
2022-09-12T00:24:58.831Z,99.04
2022-09-12T00:27:31.627Z,99.16
2022-09-12T00:30:01.781Z,99.16
2022-09-12T00:32:31.785Z,99.56
2022-09-12T00:35:02.879Z,99.23
2022-09-12T00:37:33.044Z,99.08
2022-09-12T00:40:03.269Z,99.40
2022-09-12T00:42:36.119Z,99.46
2022-09-12T00:45:07.490Z,99.31
2022-09-12T00:47:39.631Z,99.32
2022-09-12T00:50:13.806Z,99.02
2022-09-12T00:52:47.706Z,99.12
2022-09-12T00:55:21.937Z,98.91
2022-09-12T00:58:01.846Z,98.67
2022-09-12T01:00:32.986Z,98.86
2022-09-12T01:03:07.949Z,99.19
2022-09-12T01:05:44.615Z,99.48
2022-09-12T01:08:15.188Z,99.32
2022-09-12T01:10:46.003Z,98.79
2022-09-12T01:13:19.270Z,98.91
2022-09-12T01:15:49.504Z,98.80
2022-09-12T01:18:33.414Z,98.17
2022-09-12T01:21:18.021Z,98.05
2022-09-12T01:24:53.467Z,98.03
2022-09-12T01:27:58.154Z,98.19
2022-09-12T01:30:47.917Z,98.21
2022-09-12T01:33:38.097Z,98.47
2022-09-12T01:36:34.631Z,98.84
2022-09-12T01:39:07.787Z,98.61
2022-09-12T01:41:56.011Z,98.99
2022-09-12T01:44:38.481Z,98.86
2022-09-12T01:47:16.921Z,98.80
2022-09-12T01:49:58.240Z,98.84
2022-09-12T01:52:35.117Z,99.05
2022-09-12T01:55:13.117Z,99.49
2022-09-12T01:57:50.024Z,99.45
2022-09-12T02:00:20.523Z,99.71
2022-09-12T02:02:58.962Z,99.48
2022-09-12T02:05:35.646Z,99.44
2022-09-12T02:08:11.274Z,99.49
2022-09-12T02:10:48.524Z,99.43
2022-09-12T02:13:25.972Z,99.09
2022-09-12T02:16:01.108Z,99.52
2022-09-12T02:18:37.172Z,99.21
2022-09-12T02:21:09.343Z,99.26
2022-09-12T02:23:45.379Z,99.15
2022-09-12T02:26:23.500Z,99.36
2022-09-12T02:28:56.103Z,100.00
2022-09-12T02:31:31.978Z,100.00
2022-09-12T02:34:21.192Z,100.00
2022-09-12T02:37:00.746Z,100.00
2022-09-12T02:39:31.127Z,100.00
2022-09-12T02:42:03.852Z,100.00
2022-09-12T02:44:36.502Z,100.00
2022-09-12T02:47:13.011Z,100.00
2022-09-12T02:49:46.414Z,100.00
2022-09-12T02:52:16.680Z,100.00
2022-09-12T02:54:47.255Z,100.00
2022-09-12T02:57:23.230Z,100.00
2022-09-12T02:59:56.546Z,100.00
2022-09-12T03:02:46.501Z,100.00
2022-09-12T03:05:28.152Z,100.00
2022-09-12T03:09:00.506Z,100.00
2022-09-12T03:12:08.625Z,100.00
2022-09-12T03:15:01.665Z,100.00
2022-09-12T03:17:48.542Z,100.00
2022-09-12T03:20:33.586Z,100.00
2022-09-12T03:23:09.092Z,100.00
2022-09-12T03:25:47.196Z,100.00
2022-09-12T03:28:19.979Z,100.00
2022-09-12T03:30:53.637Z,100.00
2022-09-12T03:33:26.754Z,100.00
2022-09-12T03:35:59.799Z,100.00
2022-09-12T03:38:29.808Z,100.00
2022-09-12T03:40:59.843Z,100.00
2022-09-12T03:43:29.846Z,100.00
2022-09-12T03:45:59.922Z,100.00
2022-09-12T03:48:31.819Z,100.00
2022-09-12T03:51:08.918Z,100.00
2022-09-12T03:53:39.599Z,100.00
2022-09-12T03:56:12.109Z,100.00
2022-09-12T03:58:42.700Z,100.00
2022-09-12T04:01:14.368Z,100.00
2022-09-12T04:03:45.119Z,100.00
2022-09-12T04:06:21.102Z,100.00
2022-09-12T04:08:53.463Z,100.00
2022-09-12T04:11:25.567Z,100.00
2022-09-12T04:13:55.618Z,100.00
2022-09-12T04:16:25.732Z,100.00
2022-09-12T04:18:55.868Z,100.00
2022-09-12T04:21:28.616Z,100.00
2022-09-12T04:23:58.721Z,100.00
2022-09-12T04:26:29.941Z,100.00
2022-09-12T04:29:00.040Z,100.00
2022-09-12T04:31:30.253Z,100.00
2022-09-12T04:34:02.686Z,100.00
2022-09-12T04:36:35.890Z,100.00
2022-09-12T04:39:08.071Z,100.00
2022-09-12T04:41:41.883Z,100.00
2022-09-12T04:44:16.434Z,100.00
2022-09-12T04:46:49.551Z,100.00
2022-09-12T04:49:19.712Z,100.00
2022-09-12T04:51:52.566Z,100.00
2022-09-12T04:54:23.152Z,100.00
2022-09-12T04:56:54.961Z,100.00
2022-09-12T04:59:25.733Z,100.00
2022-09-12T05:01:55.902Z,100.00
2022-09-12T05:04:26.126Z,100.00
2022-09-12T05:06:58.905Z,100.00
2022-09-12T05:09:29.301Z,100.00
2022-09-12T05:12:04.722Z,100.00
2022-09-12T05:14:36.656Z,100.00
2022-09-12T05:17:08.107Z,100.00
2022-09-12T05:19:38.273Z,100.00
2022-09-12T05:22:11.065Z,100.00
2022-09-12T05:24:47.294Z,100.00
2022-09-12T05:27:20.260Z,100.00
2022-09-12T05:29:50.364Z,100.00
2022-09-12T05:32:20.918Z,100.00
2022-09-12T05:34:51.031Z,100.00
2022-09-12T05:37:24.034Z,100.00
2022-09-12T05:39:54.245Z,100.00
2022-09-12T05:42:24.498Z,100.00
2022-09-12T05:44:54.570Z,100.00
2022-09-12T05:47:24.565Z,100.00
2022-09-12T05:49:54.936Z,100.00
2022-09-12T05:52:27.766Z,100.00
2022-09-12T05:54:57.941Z,100.00
2022-09-12T05:57:28.841Z,100.00
2022-09-12T05:59:59.227Z,100.00
2022-09-12T06:02:29.414Z,100.00
2022-09-12T06:04:59.733Z,100.00
2022-09-12T06:07:32.934Z,100.00
2022-09-12T06:10:03.024Z,100.00
2022-09-12T06:12:33.251Z,100.00
2022-09-12T06:15:03.372Z,100.00
2022-09-12T06:17:33.425Z,100.00
2022-09-12T06:20:04.208Z,100.00
2022-09-12T06:22:36.686Z,100.00
2022-09-12T06:25:07.492Z,100.00
2022-09-12T06:27:37.705Z,100.00
2022-09-12T06:30:10.112Z,100.00
2022-09-12T06:32:40.183Z,100.00
2022-09-12T06:35:12.446Z,100.00
2022-09-12T06:37:47.300Z,100.00
2022-09-12T06:40:17.671Z,100.00
2022-09-12T06:42:48.783Z,100.00
2022-09-12T06:45:35.042Z,100.00
2022-09-12T06:48:05.867Z,100.00
2022-09-12T06:50:35.681Z,100.00
2022-09-12T06:53:08.369Z,100.00
2022-09-12T06:55:39.226Z,100.00
2022-09-12T06:58:09.415Z,100.00
2022-09-12T07:00:40.200Z,100.00
2022-09-12T07:03:10.423Z,99.87
2022-09-12T07:05:40.492Z,96.63
2022-09-12T07:08:13.114Z,95.35
2022-09-12T07:10:43.153Z,91.16
2022-09-12T07:13:13.965Z,87.68
2022-09-12T07:15:43.733Z,85.40
2022-09-12T07:18:14.260Z,84.94
2022-09-12T07:20:44.323Z,81.41
2022-09-12T07:23:17.027Z,79.20
2022-09-12T07:25:47.091Z,78.36
2022-09-12T07:28:17.155Z,75.43
2022-09-12T07:30:47.802Z,74.00
2022-09-12T07:33:17.843Z,72.35
2022-09-12T07:35:48.024Z,71.34
2022-09-12T07:38:20.828Z,70.97
2022-09-12T07:40:51.176Z,69.59
2022-09-12T07:43:21.227Z,67.31
2022-09-12T07:45:51.420Z,62.96
2022-09-12T07:48:21.461Z,60.99
2022-09-12T07:51:00.156Z,58.35
2022-09-12T07:53:37.064Z,56.51
2022-09-12T07:56:10.391Z,53.08
2022-09-12T07:58:43.097Z,52.01
2022-09-12T08:01:17.836Z,49.53
2022-09-12T08:03:50.540Z,52.38
2022-09-12T08:06:24.277Z,54.37
2022-09-12T08:08:59.199Z,55.91
2022-09-12T08:11:31.915Z,57.68
2022-09-12T08:14:03.220Z,59.16
2022-09-12T08:16:35.787Z,61.63
2022-09-12T08:19:07.187Z,63.12
2022-09-12T08:21:37.324Z,63.18
2022-09-12T08:24:10.622Z,63.36
2022-09-12T08:26:41.064Z,63.93
2022-09-12T08:29:11.307Z,63.97
2022-09-12T08:31:42.628Z,64.77
2022-09-12T08:34:12.750Z,63.07
2022-09-12T08:36:43.090Z,63.71
2022-09-12T08:39:17.336Z,63.17
2022-09-12T08:41:49.632Z,61.19
2022-09-12T08:44:40.165Z,59.53
2022-09-12T08:47:22.139Z,50.08
2022-09-12T08:50:03.195Z,43.27
2022-09-12T08:52:39.750Z,40.02
2022-09-12T08:55:27.986Z,37.54
2022-09-12T08:57:58.257Z,36.29
2022-09-12T09:00:38.170Z,33.74
2022-09-12T09:04:04.322Z,32.70
2022-09-12T09:06:54.664Z,31.23
2022-09-12T09:09:39.741Z,33.36
2022-09-12T09:12:21.500Z,35.77
2022-09-12T09:15:25.141Z,39.43
2022-09-12T09:18:00.621Z,43.03
2022-09-12T09:20:37.259Z,45.76
2022-09-12T09:23:15.459Z,48.98
2022-09-12T09:25:55.650Z,51.41
2022-09-12T09:28:38.307Z,53.29
2022-09-12T09:31:11.435Z,54.71
2022-09-12T09:33:41.605Z,55.92
2022-09-12T09:36:25.338Z,57.42
2022-09-12T09:39:06.589Z,58.14
2022-09-12T09:41:51.163Z,59.07
2022-09-12T09:44:23.971Z,59.11
2022-09-12T09:46:58.700Z,57.43
2022-09-12T09:49:32.416Z,52.80
2022-09-12T09:52:03.217Z,45.34
2022-09-12T09:54:40.757Z,41.51
2022-09-12T09:57:41.547Z,37.95
2022-09-12T10:00:31.854Z,35.69
2022-09-12T10:03:31.769Z,33.91
2022-09-12T10:06:05.381Z,33.17
2022-09-12T10:08:38.598Z,31.58
2022-09-12T10:11:22.470Z,31.07
2022-09-12T10:14:00.109Z,29.99
2022-09-12T10:16:35.264Z,29.13
2022-09-12T10:19:07.384Z,30.67
2022-09-12T10:21:41.477Z,31.64
2022-09-12T10:24:25.444Z,33.58
2022-09-12T10:27:00.403Z,32.93
2022-09-12T10:29:34.570Z,31.66
2022-09-12T10:32:12.764Z,31.55
2022-09-12T10:34:47.692Z,30.53
2022-09-12T10:37:27.711Z,30.47
2022-09-12T10:40:00.350Z,30.43
2022-09-12T10:42:48.781Z,29.75
2022-09-12T10:45:32.090Z,27.89
2022-09-12T10:48:24.019Z,27.84
2022-09-12T10:50:54.341Z,27.80
2022-09-12T10:53:31.037Z,26.99
2022-09-12T10:56:13.143Z,26.50
2022-09-12T10:58:58.985Z,26.75
2022-09-12T11:01:44.331Z,26.49
2022-09-12T11:04:42.184Z,24.45
2022-09-12T11:07:34.143Z,24.73
2022-09-12T11:10:19.298Z,27.09
2022-09-12T11:12:57.289Z,28.64
2022-09-12T11:15:47.547Z,28.07
2022-09-12T11:18:38.075Z,29.60
2022-09-12T11:21:25.295Z,32.03
2022-09-12T11:24:53.366Z,34.43
2022-09-12T11:27:52.233Z,34.96
2022-09-12T11:30:22.399Z,35.69
2022-09-12T11:33:17.993Z,36.97
2022-09-12T11:35:55.594Z,37.92
2022-09-12T11:38:55.880Z,34.57
2022-09-12T11:41:29.665Z,31.33
2022-09-12T11:44:06.967Z,28.67
2022-09-12T11:46:40.600Z,27.19
2022-09-12T11:49:24.067Z,26.69
2022-09-12T11:52:01.008Z,25.19
2022-09-12T11:54:40.912Z,26.22
2022-09-12T11:57:19.898Z,25.39
2022-09-12T11:59:56.130Z,23.69
2022-09-12T12:02:31.019Z,24.59
2022-09-12T12:05:20.715Z,23.47
2022-09-12T12:07:56.851Z,22.36
2022-09-12T12:10:38.761Z,22.06
2022-09-12T12:13:18.175Z,22.17
2022-09-12T12:15:51.995Z,22.91
2022-09-12T12:18:26.587Z,22.64
2022-09-12T12:20:58.864Z,23.09
2022-09-12T12:23:33.037Z,23.24
2022-09-12T12:26:07.361Z,21.03
2022-09-12T12:29:02.228Z,21.04
2022-09-12T12:31:32.508Z,23.22
2022-09-12T12:34:30.379Z,25.07
2022-09-12T12:37:05.531Z,25.76
2022-09-12T12:40:01.717Z,25.66
2022-09-12T12:43:17.649Z,27.63
2022-09-12T12:46:06.606Z,30.23
2022-09-12T12:49:10.211Z,33.41
2022-09-12T12:51:59.166Z,33.39
2022-09-12T12:54:56.034Z,35.40
2022-09-12T12:57:36.670Z,35.59
2022-09-12T13:00:30.702Z,36.08
2022-09-12T13:03:12.957Z,35.93
2022-09-12T13:05:47.045Z,34.50
2022-09-12T13:08:32.793Z,30.84
2022-09-12T13:11:08.195Z,29.42
2022-09-12T13:13:43.787Z,28.44
2022-09-12T13:16:34.480Z,26.73
2022-09-12T13:19:13.812Z,27.04
2022-09-12T13:21:58.688Z,27.82
2022-09-12T13:24:28.759Z,30.05
2022-09-12T13:26:59.738Z,31.89
2022-09-12T13:29:31.513Z,32.79
2022-09-12T13:32:05.993Z,34.19
2022-09-12T13:34:40.338Z,35.64
2022-09-12T13:37:34.434Z,34.93
2022-09-12T13:40:30.847Z,36.63
2022-09-12T13:43:28.206Z,38.80
2022-09-12T13:45:58.646Z,38.55
2022-09-12T13:48:31.584Z,38.97
2022-09-12T13:51:04.497Z,37.15
2022-09-12T13:53:46.895Z,36.40
2022-09-12T13:56:20.822Z,36.53
2022-09-12T13:58:57.333Z,34.09
2022-09-12T14:01:39.757Z,33.40
2022-09-12T14:04:32.621Z,32.38
2022-09-12T14:07:05.201Z,32.99
2022-09-12T14:09:41.790Z,32.46
2022-09-12T14:12:27.296Z,32.92
2022-09-12T14:14:57.427Z,33.27
2022-09-12T14:17:32.524Z,34.62
2022-09-12T14:20:10.217Z,35.00
2022-09-12T14:22:40.958Z,34.53
2022-09-12T14:25:19.413Z,36.03
2022-09-12T14:27:54.133Z,36.12
2022-09-12T14:30:28.103Z,37.23
2022-09-12T14:33:21.033Z,36.60
2022-09-12T14:35:56.052Z,37.35
2022-09-12T14:38:34.056Z,36.88
2022-09-12T14:41:09.552Z,36.76
2022-09-12T14:43:42.736Z,36.63
2022-09-12T14:46:22.246Z,37.81
2022-09-12T14:48:56.625Z,37.46
2022-09-12T14:51:34.960Z,37.68
2022-09-12T14:54:05.584Z,38.12
2022-09-12T14:56:45.599Z,37.86
2022-09-12T14:59:32.685Z,39.74
2022-09-12T15:02:25.266Z,40.04
2022-09-12T15:04:57.337Z,40.37
2022-09-12T15:07:36.432Z,41.63
2022-09-12T15:10:22.195Z,41.07
2022-09-12T15:12:53.110Z,41.60
2022-09-12T15:15:24.355Z,42.15
2022-09-12T15:17:54.432Z,42.72
2022-09-12T15:20:24.706Z,42.90
2022-09-12T15:22:57.511Z,43.25
2022-09-12T15:25:27.608Z,44.11
2022-09-12T15:27:57.788Z,45.51
2022-09-12T15:30:27.931Z,45.78
2022-09-12T15:33:00.159Z,46.22
2022-09-12T15:35:35.068Z,46.33
2022-09-12T15:38:07.951Z,46.54
2022-09-12T15:40:38.166Z,47.44
2022-09-12T15:43:08.458Z,47.10
2022-09-12T15:45:38.765Z,47.80
2022-09-12T15:48:09.713Z,47.81
2022-09-12T15:50:39.900Z,48.41
2022-09-12T15:53:16.880Z,49.27
2022-09-12T15:55:47.684Z,49.73
2022-09-12T15:58:17.887Z,49.68
2022-09-12T16:00:48.140Z,50.48
2022-09-12T16:03:25.605Z,50.02
2022-09-12T16:06:01.180Z,50.54
2022-09-12T16:08:35.198Z,51.07
2022-09-12T16:11:08.511Z,51.76
2022-09-12T16:13:38.659Z,52.37
2022-09-12T16:16:09.945Z,52.32
2022-09-12T16:18:42.567Z,53.09
2022-09-12T16:21:15.278Z,52.86
2022-09-12T16:23:49.591Z,53.57
2022-09-12T16:26:21.114Z,53.86
2022-09-12T16:28:51.816Z,54.78
2022-09-12T16:31:21.979Z,54.92
2022-09-12T16:33:53.084Z,55.08
2022-09-12T16:36:24.990Z,55.87
2022-09-12T16:38:58.020Z,56.04
2022-09-12T16:41:28.533Z,56.83
2022-09-12T16:43:58.792Z,57.04
2022-09-12T16:46:31.464Z,57.95
2022-09-12T16:49:02.056Z,58.49
2022-09-12T16:51:36.570Z,58.76
2022-09-12T16:54:09.270Z,58.30
2022-09-12T16:56:39.378Z,58.68
2022-09-12T16:59:09.838Z,59.43
2022-09-12T17:01:40.023Z,60.58
2022-09-12T17:04:10.182Z,60.73
2022-09-12T17:06:41.999Z,60.36
2022-09-12T17:09:18.666Z,60.39
2022-09-12T17:11:50.441Z,60.20
2022-09-12T17:14:20.947Z,60.32
2022-09-12T17:16:52.073Z,60.95
2022-09-12T17:19:26.554Z,62.04
2022-09-12T17:21:57.178Z,62.25
2022-09-12T17:24:29.701Z,62.01
2022-09-12T17:26:59.901Z,62.12
2022-09-12T17:29:30.048Z,62.73
2022-09-12T17:32:00.149Z,62.93
2022-09-12T17:34:30.271Z,62.68
2022-09-12T17:37:00.361Z,62.64
2022-09-12T17:39:33.131Z,63.19
2022-09-12T17:42:03.668Z,63.05
2022-09-12T17:44:34.598Z,63.34
2022-09-12T17:47:04.910Z,63.68
2022-09-12T17:49:36.804Z,63.03
2022-09-12T17:52:06.899Z,63.28
2022-09-12T17:54:39.931Z,63.81
2022-09-12T17:57:10.068Z,64.59
2022-09-12T17:59:40.189Z,64.16
2022-09-12T18:02:15.819Z,64.66
2022-09-12T18:04:48.800Z,65.82
2022-09-12T18:07:20.901Z,65.74
2022-09-12T18:09:55.223Z,65.72
2022-09-12T18:12:25.305Z,67.89
2022-09-12T18:14:55.384Z,68.29
2022-09-12T18:17:25.426Z,67.67
2022-09-12T18:19:55.589Z,67.62
2022-09-12T18:22:25.720Z,67.64
2022-09-12T18:24:58.393Z,67.40
2022-09-12T18:27:28.437Z,67.30
2022-09-12T18:30:19.527Z,67.07
2022-09-12T18:32:48.702Z,67.10
2022-09-12T18:35:19.213Z,67.39
2022-09-12T18:37:49.231Z,67.83
2022-09-12T18:40:22.136Z,68.25
2022-09-12T18:42:52.580Z,69.80
2022-09-12T18:45:22.658Z,69.47
2022-09-12T18:47:52.705Z,69.36
2022-09-12T18:50:23.264Z,69.63
2022-09-12T18:52:59.113Z,69.46
2022-09-12T18:55:33.637Z,69.65
2022-09-12T18:58:03.733Z,70.60
2022-09-12T19:00:33.816Z,70.76
2022-09-12T19:03:04.608Z,70.61
2022-09-12T19:05:35.517Z,71.13
2022-09-12T19:08:06.070Z,70.96
2022-09-12T19:10:38.764Z,71.08
2022-09-12T19:13:08.880Z,71.49
2022-09-12T19:15:43.254Z,71.29
2022-09-12T19:18:13.485Z,71.13
2022-09-12T19:20:43.565Z,71.76
2022-09-12T19:23:13.851Z,71.74
2022-09-12T19:25:46.547Z,71.72
2022-09-12T19:28:16.621Z,71.48
2022-09-12T19:30:50.572Z,71.90
2022-09-12T19:33:20.809Z,71.83
2022-09-12T19:35:51.720Z,71.99
2022-09-12T19:38:22.077Z,73.07
2022-09-12T19:41:02.831Z,73.11
2022-09-12T19:43:33.516Z,73.08
2022-09-12T19:46:04.530Z,72.46
2022-09-12T19:48:34.951Z,71.92
2022-09-12T19:51:07.143Z,71.85
2022-09-12T19:53:38.338Z,71.52
2022-09-12T19:56:13.383Z,71.95
2022-09-12T19:58:45.912Z,72.58
2022-09-12T20:01:19.083Z,72.53
2022-09-12T20:03:51.801Z,72.73
2022-09-12T20:06:22.622Z,73.11
2022-09-12T20:08:52.793Z,73.41
2022-09-12T20:11:27.979Z,73.56
2022-09-12T20:13:58.141Z,74.01
2022-09-12T20:16:30.277Z,74.22
2022-09-12T20:19:03.638Z,74.61
2022-09-12T20:21:36.078Z,74.99
2022-09-12T20:24:09.501Z,75.27
2022-09-12T20:26:43.404Z,75.69
2022-09-12T20:29:14.210Z,75.56
2022-09-12T20:31:44.937Z,76.14
2022-09-12T20:34:19.240Z,75.88
2022-09-12T20:36:49.662Z,75.04
2022-09-12T20:39:23.050Z,75.26
2022-09-12T20:41:55.777Z,75.07
2022-09-12T20:44:25.852Z,74.71
2022-09-12T20:46:55.975Z,74.82
2022-09-12T20:49:26.271Z,74.17
2022-09-12T20:51:56.474Z,74.61
2022-09-12T20:54:26.801Z,75.23
2022-09-12T20:56:59.509Z,75.20
2022-09-12T20:59:29.633Z,75.01
2022-09-12T21:02:00.114Z,74.94
2022-09-12T21:04:30.272Z,75.22
2022-09-12T21:07:00.256Z,75.02
2022-09-12T21:09:30.249Z,75.50
2022-09-12T21:12:03.003Z,76.17
2022-09-12T21:14:33.230Z,76.98
2022-09-12T21:17:03.968Z,77.24
2022-09-12T21:19:35.804Z,76.29
2022-09-12T21:22:06.285Z,76.71
2022-09-12T21:24:36.417Z,76.45
2022-09-12T21:27:09.312Z,75.77
2022-09-12T21:29:39.533Z,74.85
2022-09-12T21:32:14.056Z,73.94
2022-09-12T21:34:44.572Z,74.70
2022-09-12T21:37:14.759Z,74.82
2022-09-12T21:39:45.056Z,74.77
2022-09-12T21:42:17.898Z,74.46
2022-09-12T21:44:48.217Z,73.50
2022-09-12T21:47:18.650Z,73.31
2022-09-12T21:49:49.073Z,73.66
2022-09-12T21:52:19.340Z,72.95
2022-09-12T21:54:49.525Z,72.13
2022-09-12T21:57:22.344Z,71.88
2022-09-12T21:59:52.629Z,71.80
2022-09-12T22:02:23.205Z,71.40
2022-09-12T22:04:53.390Z,71.15
2022-09-12T22:07:25.069Z,70.93
2022-09-12T22:09:55.267Z,70.60
2022-09-12T22:12:28.914Z,70.83
2022-09-12T22:14:59.015Z,70.60
2022-09-12T22:17:29.984Z,70.42
2022-09-12T22:20:00.128Z,70.26
2022-09-12T22:22:42.747Z,69.75
2022-09-12T22:25:13.114Z,70.13
2022-09-12T22:27:46.212Z,69.72
2022-09-12T22:30:16.449Z,69.65
2022-09-12T22:32:48.268Z,69.81
2022-09-12T22:35:18.930Z,69.44
2022-09-12T22:37:51.980Z,69.11
2022-09-12T22:40:22.310Z,68.79
2022-09-12T22:42:57.252Z,68.84
2022-09-12T22:45:27.551Z,68.75
2022-09-12T22:48:00.830Z,68.49
2022-09-12T22:50:31.554Z,68.43
2022-09-12T22:53:01.619Z,68.61
2022-09-12T22:55:31.805Z,68.60
2022-09-12T22:58:04.477Z,68.04
2022-09-12T23:00:34.714Z,67.97
2022-09-12T23:03:04.922Z,68.10
2022-09-12T23:05:35.022Z,68.09
2022-09-12T23:08:05.721Z,67.72
2022-09-12T23:10:38.604Z,67.84
2022-09-12T23:13:11.264Z,67.43
2022-09-12T23:15:41.633Z,67.77
2022-09-12T23:18:11.759Z,67.71
2022-09-12T23:20:41.799Z,68.07
2022-09-12T23:23:11.898Z,67.67
2022-09-12T23:25:41.954Z,67.65
2022-09-12T23:28:14.820Z,67.40
2022-09-12T23:30:44.904Z,67.72
2022-09-12T23:33:15.106Z,67.75
2022-09-12T23:35:45.141Z,67.83
2022-09-12T23:38:15.288Z,67.89
2022-09-12T23:40:45.276Z,68.05
2022-09-12T23:43:17.851Z,68.23
2022-09-12T23:45:48.075Z,68.48
2022-09-12T23:48:18.266Z,68.18
2022-09-12T23:50:49.112Z,68.40
2022-09-12T23:53:20.168Z,68.55
2022-09-12T23:55:51.054Z,69.40
2022-09-12T23:58:24.098Z,70.03
